createdAt,value
2023-04-16T00:02:01.638Z,37.05
2023-04-16T00:04:28.465Z,33.50
2023-04-16T00:06:58.411Z,31.90
2023-04-16T00:09:25.106Z,36.92
2023-04-16T00:11:51.995Z,32.38
2023-04-16T00:14:18.848Z,37.60
2023-04-16T00:16:46.037Z,34.50
2023-04-16T00:19:13.502Z,34.33
2023-04-16T00:21:40.612Z,34.58
2023-04-16T00:24:07.450Z,37.60
2023-04-16T00:26:34.478Z,34.33
2023-04-16T00:29:09.677Z,37.33
2023-04-16T00:31:37.301Z,36.08
2023-04-16T00:34:04.188Z,35.25
2023-04-16T00:36:31.065Z,36.40
2023-04-16T00:38:58.130Z,39.20
2023-04-16T00:41:25.198Z,33.97
2023-04-16T00:43:51.915Z,35.97
2023-04-16T00:46:24.094Z,39.72
2023-04-16T00:51:18.994Z,42.17
2023-04-16T00:53:46.704Z,42.22
2023-04-16T00:56:13.990Z,43.65
2023-04-16T00:58:41.125Z,50.05
2023-04-16T01:01:07.913Z,47.17
2023-04-16T01:03:46.796Z,43.20
2023-04-16T01:06:14.290Z,39.08
2023-04-16T01:08:41.109Z,43.42
2023-04-16T01:11:08.269Z,43.08
2023-04-16T01:13:39.295Z,42.45
2023-04-16T01:16:08.602Z,41.95
2023-04-16T01:18:36.929Z,43.00
2023-04-16T01:21:16.159Z,45.13
2023-04-16T01:23:42.859Z,44.83
2023-04-16T01:26:09.646Z,37.50
2023-04-16T01:28:36.544Z,39.13
2023-04-16T01:31:03.690Z,45.00
2023-04-16T01:33:39.270Z,44.55
2023-04-16T01:36:20.211Z,41.03
2023-04-16T01:38:58.033Z,40.25
2023-04-16T01:41:32.213Z,43.63
2023-04-16T01:44:08.927Z,42.72
2023-04-16T01:46:53.977Z,42.33
2023-04-16T01:49:36.884Z,45.78
2023-04-16T01:52:18.044Z,44.92
2023-04-16T01:54:44.843Z,36.92
2023-04-16T01:57:19.002Z,45.17
2023-04-16T01:59:52.517Z,44.85
2023-04-16T02:02:32.202Z,38.83
2023-04-16T02:04:58.948Z,38.47
2023-04-16T02:07:28.842Z,40.17
2023-04-16T02:10:11.538Z,38.78
2023-04-16T02:12:44.706Z,40.13
2023-04-16T02:15:38.259Z,36.15
2023-04-16T02:18:07.934Z,39.20
2023-04-16T02:21:04.020Z,39.42
2023-04-16T02:23:37.421Z,40.92
2023-04-16T02:26:08.323Z,36.50
2023-04-16T02:28:34.980Z,38.10
2023-04-16T02:31:12.929Z,38.72
2023-04-16T02:33:45.362Z,33.83
2023-04-16T02:36:21.221Z,38.63
2023-04-16T02:38:47.880Z,39.88
2023-04-16T02:41:31.556Z,38.00
2023-04-16T02:44:04.255Z,38.35
2023-04-16T02:46:34.065Z,35.28
2023-04-16T02:49:04.316Z,36.17
2023-04-16T02:51:36.623Z,41.25
2023-04-16T02:56:39.558Z,42.78
2023-04-16T02:59:24.738Z,38.53
2023-04-16T03:01:53.511Z,41.55
2023-04-16T03:04:31.521Z,40.00
2023-04-16T03:07:14.248Z,38.90
2023-04-16T03:09:45.481Z,36.33
2023-04-16T03:12:16.063Z,41.13
2023-04-16T03:15:02.489Z,39.72
2023-04-16T03:17:34.278Z,41.72
2023-04-16T03:20:13.934Z,47.55
2023-04-16T03:22:41.712Z,46.28
2023-04-16T03:25:16.675Z,49.00
2023-04-16T03:27:46.471Z,59.47
2023-04-16T03:30:33.995Z,51.67
2023-04-16T03:33:07.205Z,57.22
2023-04-16T03:38:39.391Z,54.15
2023-04-16T03:41:09.201Z,52.22
2023-04-16T03:43:46.460Z,55.10
2023-04-16T03:46:24.330Z,55.70
2023-04-16T03:48:59.466Z,59.40
2023-04-16T03:51:26.935Z,52.90
2023-04-16T03:53:57.414Z,61.53
2023-04-16T03:56:33.697Z,52.25
2023-04-16T03:59:05.488Z,58.40
2023-04-16T04:02:04.854Z,50.42
2023-04-16T04:04:43.577Z,62.83
2023-04-16T04:07:23.498Z,56.45
2023-04-16T04:09:55.224Z,54.05
2023-04-16T04:12:29.903Z,55.35
2023-04-16T04:14:57.350Z,55.70
2023-04-16T04:17:31.696Z,54.53
2023-04-16T04:20:15.812Z,53.35
2023-04-16T04:22:43.277Z,53.85
2023-04-16T04:25:23.074Z,54.83
2023-04-16T04:28:07.167Z,53.25
2023-04-16T04:33:08.266Z,62.47
2023-04-16T04:35:37.982Z,50.00
2023-04-16T04:38:22.168Z,62.58
2023-04-16T04:40:57.646Z,56.10
2023-04-16T04:43:32.544Z,54.88
2023-04-16T04:46:06.477Z,53.28
2023-04-16T04:48:38.995Z,54.78
2023-04-16T04:51:24.003Z,54.78
2023-04-16T04:54:03.362Z,60.28
2023-04-16T04:56:46.298Z,53.28
2023-04-16T04:59:26.636Z,56.13
2023-04-16T05:01:57.086Z,57.50
2023-04-16T05:04:28.301Z,53.08
2023-04-16T05:07:07.154Z,59.50
2023-04-16T05:09:38.946Z,60.50
2023-04-16T05:12:06.663Z,64.95
2023-04-16T05:14:34.128Z,63.78
2023-04-16T05:17:08.121Z,60.65
2023-04-16T05:19:34.964Z,58.22
2023-04-16T05:22:21.785Z,63.40
2023-04-16T05:24:53.920Z,60.70
2023-04-16T05:27:47.194Z,64.07
2023-04-16T05:30:13.958Z,58.65
2023-04-16T05:32:49.481Z,59.13
2023-04-16T05:35:35.800Z,56.90
2023-04-16T05:38:10.631Z,62.90
2023-04-16T05:40:37.361Z,54.97
2023-04-16T05:43:04.232Z,55.72
2023-04-16T05:45:33.594Z,54.20
2023-04-16T05:48:06.240Z,59.17
2023-04-16T05:50:35.923Z,53.60
2023-04-16T05:53:04.345Z,55.40
2023-04-16T05:55:31.040Z,52.72
2023-04-16T05:58:00.970Z,52.90
2023-04-16T06:00:28.249Z,51.55
2023-04-16T06:02:58.134Z,51.33
2023-04-16T06:05:31.107Z,44.90
2023-04-16T06:07:59.122Z,43.72
2023-04-16T06:10:25.812Z,40.60
2023-04-16T06:12:53.351Z,47.47
2023-04-16T06:15:19.944Z,50.08
2023-04-16T06:17:52.687Z,41.20
2023-04-16T06:20:34.236Z,39.15
2023-04-16T06:23:13.925Z,48.58
2023-04-16T06:25:48.620Z,37.58
2023-04-16T06:28:15.505Z,40.60
2023-04-16T06:30:45.224Z,41.70
2023-04-16T06:33:12.764Z,39.90
2023-04-16T06:35:39.426Z,37.15
2023-04-16T06:38:12.279Z,39.08
2023-04-16T06:40:51.777Z,39.55
2023-04-16T06:43:18.403Z,37.08
2023-04-16T06:45:51.581Z,35.33
2023-04-16T06:48:24.480Z,32.15
2023-04-16T06:50:55.813Z,38.83
2023-04-16T06:53:25.879Z,34.20
2023-04-16T06:55:59.097Z,37.72
2023-04-16T06:58:51.445Z,32.63
2023-04-16T07:01:27.230Z,32.67
2023-04-16T07:04:13.297Z,35.20
2023-04-16T07:06:53.765Z,32.75
2023-04-16T07:09:25.477Z,37.58
2023-04-16T07:12:05.930Z,37.25
2023-04-16T07:14:40.224Z,41.17
2023-04-16T07:17:07.212Z,33.45
2023-04-16T07:19:40.033Z,38.65
2023-04-16T07:22:24.316Z,35.95
2023-04-16T07:24:51.666Z,35.25
2023-04-16T07:27:19.148Z,35.03
2023-04-16T07:29:46.155Z,39.75
2023-04-16T07:32:15.298Z,40.95
2023-04-16T07:34:42.447Z,37.45
2023-04-16T07:37:09.194Z,32.72
2023-04-16T07:39:35.987Z,34.63
2023-04-16T07:42:02.841Z,36.83
2023-04-16T07:44:31.147Z,35.90
2023-04-16T07:46:58.050Z,34.35
2023-04-16T07:49:24.855Z,34.15
2023-04-16T07:51:51.785Z,33.17
2023-04-16T07:54:20.764Z,34.10
2023-04-16T07:59:30.924Z,34.30
2023-04-16T08:01:57.696Z,36.55
2023-04-16T08:04:38.678Z,38.47
2023-04-16T08:07:08.019Z,34.38
2023-04-16T08:09:37.598Z,30.92
2023-04-16T08:12:04.514Z,28.92
2023-04-16T08:14:38.925Z,32.28
2023-04-16T08:17:05.849Z,32.92
2023-04-16T08:19:32.644Z,28.02
2023-04-16T08:21:59.970Z,36.55
2023-04-16T08:24:42.185Z,28.08
2023-04-16T08:27:18.608Z,28.45
2023-04-16T08:29:48.256Z,31.77
2023-04-16T08:32:15.026Z,30.02
2023-04-16T08:34:48.803Z,33.83
2023-04-16T08:37:15.569Z,29.25
2023-04-16T08:39:42.262Z,27.80
2023-04-16T08:42:30.314Z,26.52
2023-04-16T08:45:08.689Z,27.83
2023-04-16T08:47:39.404Z,23.10
2023-04-16T08:50:06.684Z,27.27
2023-04-16T08:52:49.486Z,24.52
2023-04-16T08:55:30.238Z,26.63
2023-04-16T08:58:07.859Z,24.92
2023-04-16T09:00:35.519Z,29.60
2023-04-16T09:03:07.231Z,23.77
2023-04-16T09:05:34.993Z,27.23
2023-04-16T09:08:04.799Z,25.88
2023-04-16T09:10:32.023Z,29.23
2023-04-16T09:12:59.006Z,22.55
2023-04-16T09:15:47.367Z,25.92
2023-04-16T09:18:26.811Z,23.90
2023-04-16T09:20:57.983Z,21.23
2023-04-16T09:23:25.194Z,23.23
2023-04-16T09:25:51.763Z,25.90
2023-04-16T09:28:47.525Z,22.17
2023-04-16T09:31:18.496Z,25.08
2023-04-16T09:34:04.723Z,27.52
2023-04-16T09:36:32.731Z,25.83
2023-04-16T09:39:00.931Z,22.80
2023-04-16T09:41:30.272Z,21.63
2023-04-16T09:43:58.288Z,20.75
2023-04-16T09:46:45.252Z,19.85
2023-04-16T09:49:17.654Z,20.27
2023-04-16T09:51:49.750Z,22.42
2023-04-16T09:54:16.643Z,23.00
2023-04-16T09:56:45.172Z,19.15
2023-04-16T09:59:21.933Z,15.85
2023-04-16T10:02:14.781Z,18.15
2023-04-16T10:04:51.425Z,19.42
2023-04-16T10:07:19.077Z,16.95
2023-04-16T10:09:48.541Z,18.58
2023-04-16T10:12:16.065Z,17.73
2023-04-16T10:14:43.048Z,19.92
2023-04-16T10:17:10.183Z,20.98
2023-04-16T10:19:37.472Z,19.77
2023-04-16T10:22:04.389Z,21.25
2023-04-16T10:24:32.747Z,19.23
2023-04-16T10:27:00.193Z,23.38
2023-04-16T10:29:32.125Z,25.33
2023-04-16T10:32:00.596Z,27.52
2023-04-16T10:34:29.096Z,27.50
2023-04-16T10:36:56.126Z,27.48
2023-04-16T10:39:24.316Z,27.92
2023-04-16T10:42:06.348Z,29.58
2023-04-16T10:44:33.568Z,26.33
2023-04-16T10:47:00.213Z,31.02
2023-04-16T10:49:27.219Z,27.10
2023-04-16T10:52:04.750Z,29.27
2023-04-16T10:54:31.861Z,29.63
2023-04-16T10:57:04.724Z,28.27
2023-04-16T10:59:34.915Z,34.22
2023-04-16T11:02:08.669Z,29.08
2023-04-16T11:04:37.593Z,34.83
2023-04-16T11:07:07.400Z,31.75
2023-04-16T11:09:51.335Z,35.40
2023-04-16T11:12:20.859Z,32.90
2023-04-16T11:14:50.098Z,37.67
2023-04-16T11:17:16.881Z,32.97
2023-04-16T11:19:43.726Z,34.92
2023-04-16T11:22:14.050Z,32.22
2023-04-16T11:24:41.286Z,36.10
2023-04-16T11:27:08.724Z,40.08
2023-04-16T11:29:35.454Z,36.22
2023-04-16T11:32:02.584Z,37.08
2023-04-16T11:34:29.469Z,35.38
2023-04-16T11:36:56.165Z,32.92
2023-04-16T11:39:23.348Z,32.67
2023-04-16T11:41:52.381Z,34.15
2023-04-16T11:44:18.913Z,32.63
2023-04-16T11:46:45.614Z,29.75
2023-04-16T11:49:12.491Z,30.98
2023-04-16T11:51:46.926Z,29.88
2023-04-16T11:54:21.168Z,31.05
2023-04-16T11:56:49.817Z,30.05
2023-04-16T11:59:23.160Z,26.02
2023-04-16T12:01:57.866Z,27.65
2023-04-16T12:04:27.275Z,29.50
2023-04-16T12:07:14.064Z,27.52
2023-04-16T12:09:41.991Z,26.48
2023-04-16T12:12:31.134Z,24.98
2023-04-16T12:15:03.791Z,20.83
2023-04-16T12:20:01.084Z,20.70
2023-04-16T12:22:36.823Z,22.90
2023-04-16T12:25:10.712Z,18.85
2023-04-16T12:27:52.974Z,26.00
2023-04-16T12:30:22.501Z,20.02
2023-04-16T12:32:51.898Z,19.17
2023-04-16T12:35:34.308Z,29.75
2023-04-16T12:38:01.563Z,23.95
2023-04-16T12:40:28.344Z,18.60
2023-04-16T12:42:55.377Z,20.08
2023-04-16T12:45:22.352Z,19.25
2023-04-16T12:47:50.542Z,17.85
2023-04-16T12:50:18.026Z,16.77
2023-04-16T12:52:44.814Z,22.70
2023-04-16T12:55:12.047Z,16.08
2023-04-16T12:57:38.632Z,15.05
2023-04-16T13:00:06.752Z,23.42
2023-04-16T13:02:34.235Z,15.80
2023-04-16T13:05:00.933Z,17.50
2023-04-16T13:07:28.305Z,18.50
2023-04-16T13:09:54.975Z,16.67
2023-04-16T13:12:21.645Z,15.70
2023-04-16T13:14:48.280Z,20.55
2023-04-16T13:17:16.206Z,14.75
2023-04-16T13:19:42.859Z,17.00
2023-04-16T13:22:09.774Z,16.58
2023-04-16T13:24:36.627Z,13.05
2023-04-16T13:27:03.244Z,14.68
2023-04-16T13:29:30.202Z,17.38
2023-04-16T13:31:57.589Z,14.32
2023-04-16T13:34:24.218Z,15.32
2023-04-16T13:36:50.870Z,15.00
2023-04-16T13:39:17.605Z,16.50
2023-04-16T13:41:44.248Z,16.25
2023-04-16T13:44:11.060Z,15.80
2023-04-16T13:46:37.773Z,16.60
2023-04-16T13:49:04.447Z,18.73
2023-04-16T13:51:32.293Z,14.85
2023-04-16T13:53:58.917Z,14.48
2023-04-16T13:56:25.704Z,14.98
2023-04-16T13:58:52.421Z,16.00
2023-04-16T14:01:19.606Z,14.27
2023-04-16T14:03:46.477Z,19.42
2023-04-16T14:06:13.873Z,16.17
2023-04-16T14:08:40.666Z,16.52
2023-04-16T14:11:07.678Z,18.08
2023-04-16T14:13:34.392Z,13.73
2023-04-16T14:16:02.974Z,16.20
2023-04-16T14:18:29.735Z,16.08
2023-04-16T14:20:56.412Z,13.45
2023-04-16T14:23:24.635Z,15.52
2023-04-16T14:25:51.231Z,17.30
2023-04-16T14:28:17.869Z,19.42
2023-04-16T14:30:44.545Z,17.27
2023-04-16T14:33:11.386Z,16.17
2023-04-16T14:35:38.015Z,12.65
2023-04-16T14:38:04.755Z,13.63
2023-04-16T14:40:31.402Z,15.27
2023-04-16T14:42:58.070Z,12.50
2023-04-16T14:45:29.031Z,14.77
2023-04-16T14:47:55.999Z,12.85
2023-04-16T14:50:28.323Z,13.43
2023-04-16T14:52:56.025Z,15.10
2023-04-16T14:55:22.800Z,14.85
2023-04-16T14:58:08.414Z,14.27
2023-04-16T15:00:36.026Z,13.30
2023-04-16T15:03:06.722Z,12.85
2023-04-16T15:05:40.090Z,17.42
2023-04-16T15:08:07.309Z,16.83
2023-04-16T15:10:35.042Z,13.27
2023-04-16T15:13:01.704Z,13.75
2023-04-16T15:15:28.380Z,12.63
2023-04-16T15:17:56.994Z,10.98
2023-04-16T15:20:23.733Z,12.15
2023-04-16T15:22:50.519Z,14.15
2023-04-16T15:25:17.502Z,11.43
2023-04-16T15:27:44.110Z,8.90
2023-04-16T15:30:12.672Z,9.05
2023-04-16T15:32:39.363Z,9.52
2023-04-16T15:35:06.287Z,8.88
2023-04-16T15:37:32.933Z,9.60
2023-04-16T15:39:59.531Z,10.02
2023-04-16T15:42:26.325Z,14.90
2023-04-16T15:44:52.952Z,10.73
2023-04-16T15:47:19.558Z,11.68
2023-04-16T15:49:46.112Z,9.52
2023-04-16T15:52:14.120Z,11.52
2023-04-16T15:54:41.065Z,12.95
2023-04-16T15:57:07.742Z,13.88
2023-04-16T15:59:34.600Z,10.85
2023-04-16T16:02:01.411Z,11.07
2023-04-16T16:04:28.352Z,11.43
2023-04-16T16:06:56.319Z,13.95
2023-04-16T16:09:27.217Z,13.48
2023-04-16T16:11:54.429Z,12.73
2023-04-16T16:14:22.838Z,12.40
2023-04-16T16:16:52.351Z,11.38
2023-04-16T16:19:19.081Z,14.05
2023-04-16T16:21:46.175Z,12.52
2023-04-16T16:24:12.803Z,12.45
2023-04-16T16:26:39.416Z,14.98
2023-04-16T16:29:07.269Z,13.43
2023-04-16T16:31:33.996Z,12.18
2023-04-16T16:34:01.118Z,12.70
2023-04-16T16:36:28.400Z,17.35
2023-04-16T16:38:55.279Z,11.82
2023-04-16T16:41:25.101Z,12.18
2023-04-16T16:44:02.290Z,13.13
2023-04-16T16:46:29.661Z,13.32
2023-04-16T16:48:56.433Z,15.82
2023-04-16T16:51:23.111Z,12.98
2023-04-16T16:53:50.019Z,15.40
2023-04-16T16:56:23.164Z,15.68
2023-04-16T16:58:58.661Z,19.20
2023-04-16T17:01:26.397Z,13.00
2023-04-16T17:03:53.681Z,14.57
2023-04-16T17:06:21.440Z,15.85
2023-04-16T17:08:55.755Z,13.35
2023-04-16T17:11:24.914Z,12.25
2023-04-16T17:13:51.717Z,13.55
2023-04-16T17:16:18.760Z,10.27
2023-04-16T17:18:45.447Z,11.75
2023-04-16T17:21:12.394Z,15.18
2023-04-16T17:23:41.140Z,17.55
2023-04-16T17:26:08.123Z,13.57
2023-04-16T17:28:58.015Z,14.95
2023-04-16T17:31:29.742Z,15.45
2023-04-16T17:33:56.384Z,20.42
2023-04-16T17:36:23.344Z,16.27
2023-04-16T17:38:51.032Z,16.50
2023-04-16T17:41:18.125Z,15.05
2023-04-16T17:43:51.006Z,19.20
2023-04-16T17:46:18.258Z,15.27
2023-04-16T17:48:44.981Z,11.77
2023-04-16T17:51:12.125Z,14.25
2023-04-16T17:53:39.100Z,13.38
2023-04-16T17:56:05.902Z,14.52
2023-04-16T17:58:35.111Z,11.25
2023-04-16T18:01:13.213Z,15.15
2023-04-16T18:03:40.323Z,14.13
2023-04-16T18:06:07.145Z,13.35
2023-04-16T18:08:36.587Z,12.65
2023-04-16T18:11:09.476Z,12.38
2023-04-16T18:13:36.350Z,13.05
2023-04-16T18:16:03.364Z,14.32
2023-04-16T18:18:30.094Z,15.90
2023-04-16T18:20:56.886Z,13.07
2023-04-16T18:23:33.868Z,17.52
2023-04-16T18:26:00.667Z,14.45
2023-04-16T18:28:30.566Z,17.13
2023-04-16T18:30:58.893Z,16.27
2023-04-16T18:33:54.232Z,15.15
2023-04-16T18:36:20.128Z,15.50
2023-04-16T18:38:59.554Z,14.20
2023-04-16T18:41:28.095Z,14.88
2023-04-16T18:43:54.967Z,19.77
2023-04-16T18:46:21.785Z,12.38
2023-04-16T18:48:48.521Z,11.80
2023-04-16T18:51:16.372Z,12.52
2023-04-16T18:53:45.677Z,15.63
2023-04-16T18:56:12.975Z,14.30
2023-04-16T18:58:39.793Z,15.10
2023-04-16T19:01:11.318Z,13.57
2023-04-16T19:03:38.691Z,14.02
2023-04-16T19:06:06.382Z,17.33
2023-04-16T19:08:33.256Z,15.35
2023-04-16T19:11:05.100Z,14.48
2023-04-16T19:13:37.283Z,14.07
2023-04-16T19:16:06.148Z,18.45
2023-04-16T19:18:38.635Z,15.93
2023-04-16T19:21:10.066Z,16.02
2023-04-16T19:23:45.385Z,16.63
2023-04-16T19:26:22.152Z,20.23
2023-04-16T19:29:01.543Z,21.40
2023-04-16T19:31:42.699Z,21.02
2023-04-16T19:34:29.722Z,23.42
2023-04-16T19:37:07.279Z,18.45
2023-04-16T19:39:33.900Z,16.48
2023-04-16T19:42:10.478Z,16.58
2023-04-16T19:44:53.188Z,17.95
2023-04-16T19:47:25.371Z,15.32
2023-04-16T19:52:55.088Z,17.92
2023-04-16T19:55:29.278Z,13.52
2023-04-16T19:58:05.687Z,16.98
2023-04-16T20:00:36.677Z,15.13
2023-04-16T20:03:17.771Z,14.55
2023-04-16T20:05:51.585Z,15.05
2023-04-16T20:08:23.417Z,16.88
2023-04-16T20:10:56.669Z,17.67
2023-04-16T20:13:39.483Z,21.30
2023-04-16T20:16:10.508Z,13.50
2023-04-16T20:18:41.713Z,15.70
2023-04-16T20:21:12.723Z,13.85
2023-04-16T20:23:45.087Z,13.40
2023-04-16T20:26:18.492Z,14.38
2023-04-16T20:28:52.322Z,13.68
2023-04-16T20:31:25.952Z,16.75
2023-04-16T20:34:05.532Z,13.45
2023-04-16T20:36:38.050Z,12.82
2023-04-16T20:41:47.910Z,16.23
2023-04-16T20:44:19.060Z,10.77
2023-04-16T20:46:59.207Z,10.73
2023-04-16T20:49:33.897Z,11.27
2023-04-16T20:52:05.057Z,13.50
2023-04-16T20:54:38.946Z,12.20
2023-04-16T20:57:11.802Z,12.63
2023-04-16T20:59:41.384Z,12.43
2023-04-16T21:02:11.705Z,13.45
2023-04-16T21:04:41.840Z,10.02
2023-04-16T21:07:08.556Z,14.93
2023-04-16T21:09:41.980Z,14.00
2023-04-16T21:12:09.543Z,14.57
2023-04-16T21:14:49.325Z,13.02
2023-04-16T21:17:29.468Z,13.75
2023-04-16T21:20:23.291Z,12.65
2023-04-16T21:23:03.143Z,12.80
2023-04-16T21:25:33.716Z,11.45
2023-04-16T21:28:00.662Z,14.15
2023-04-16T21:30:33.341Z,18.45
2023-04-16T21:33:17.347Z,14.00
2023-04-16T21:35:44.165Z,12.98
2023-04-16T21:38:10.881Z,13.40
2023-04-16T21:40:46.633Z,12.15
2023-04-16T21:43:14.147Z,13.05
2023-04-16T21:45:41.016Z,12.32
2023-04-16T21:48:12.974Z,13.82
2023-04-16T21:50:39.846Z,17.25
2023-04-16T21:53:09.859Z,14.57
2023-04-16T21:55:55.374Z,14.18
2023-04-16T21:58:27.043Z,12.73
2023-04-16T22:00:58.005Z,11.27
2023-04-16T22:03:31.212Z,13.02
2023-04-16T22:06:07.544Z,13.98
2023-04-16T22:08:36.847Z,12.00
2023-04-16T22:11:17.719Z,15.13
2023-04-16T22:13:57.691Z,15.45
2023-04-16T22:16:28.809Z,12.88
2023-04-16T22:19:00.176Z,13.75
2023-04-16T22:21:36.311Z,14.83
2023-04-16T22:24:02.962Z,15.60
2023-04-16T22:26:43.134Z,18.35
2023-04-16T22:29:25.431Z,14.27
2023-04-16T22:32:02.107Z,25.17
2023-04-16T22:34:34.153Z,12.80
2023-04-16T22:37:03.033Z,16.08
2023-04-16T22:39:32.953Z,17.52
2023-04-16T22:42:14.012Z,20.00
2023-04-16T22:44:44.058Z,17.25
2023-04-16T22:47:20.048Z,13.55
2023-04-16T22:50:10.847Z,16.73
2023-04-16T22:52:37.552Z,21.27
2023-04-16T22:55:05.231Z,18.08
2023-04-16T22:58:07.815Z,22.08
2023-04-16T23:00:37.061Z,19.25
2023-04-16T23:03:09.123Z,20.08
2023-04-16T23:05:43.545Z,18.45
2023-04-16T23:08:15.346Z,19.38
2023-04-16T23:10:47.028Z,19.42
2023-04-16T23:13:14.031Z,18.85
2023-04-16T23:15:40.916Z,16.85
2023-04-16T23:18:15.810Z,16.95
2023-04-16T23:20:42.531Z,21.30
2023-04-16T23:23:09.305Z,16.35
2023-04-16T23:25:36.080Z,15.70
2023-04-16T23:28:02.869Z,18.70
2023-04-16T23:30:29.469Z,17.13
2023-04-16T23:32:56.355Z,18.30
2023-04-16T23:35:23.178Z,17.20
2023-04-16T23:37:55.741Z,18.58
2023-04-16T23:40:22.671Z,20.70
2023-04-16T23:42:49.339Z,18.73
2023-04-16T23:45:16.238Z,15.80
2023-04-16T23:47:42.972Z,21.52
2023-04-16T23:50:09.937Z,22.42
2023-04-16T23:52:36.759Z,20.00
2023-04-16T23:55:03.546Z,20.77
2023-04-16T23:57:30.877Z,30.98
2023-04-16T23:59:57.518Z,18.88
